createdAt,value
2022-12-03T00:01:57.481Z,94.13
2022-12-03T00:04:25.019Z,93.80
2022-12-03T00:06:52.605Z,94.21
2022-12-03T00:09:20.044Z,93.93
2022-12-03T00:11:48.069Z,93.89
2022-12-03T00:14:15.503Z,94.01
2022-12-03T00:16:43.339Z,94.18
2022-12-03T00:19:10.719Z,94.12
2022-12-03T00:21:38.254Z,94.17
2022-12-03T00:24:06.173Z,93.78
2022-12-03T00:26:33.586Z,93.97
2022-12-03T00:29:01.022Z,93.97
2022-12-03T00:31:28.461Z,93.92
2022-12-03T00:33:59.123Z,94.12
2022-12-03T00:36:26.637Z,94.39
2022-12-03T00:38:54.662Z,94.18
2022-12-03T00:41:22.082Z,94.23
2022-12-03T00:43:49.439Z,93.88
2022-12-03T00:46:21.112Z,93.74
2022-12-03T00:48:49.078Z,94.11
2022-12-03T00:51:16.576Z,94.21
2022-12-03T00:53:44.004Z,94.00
2022-12-03T00:56:11.500Z,94.00
2022-12-03T00:58:39.054Z,93.81
2022-12-03T01:01:06.453Z,94.35
2022-12-03T01:03:33.967Z,93.98
2022-12-03T01:06:01.337Z,93.98
2022-12-03T01:08:28.840Z,93.99
2022-12-03T01:10:56.473Z,94.17
2022-12-03T01:13:23.921Z,93.99
2022-12-03T01:15:51.757Z,94.23
2022-12-03T01:18:19.334Z,94.20
2022-12-03T01:20:46.889Z,93.99
2022-12-03T01:23:14.386Z,94.01
2022-12-03T01:25:41.982Z,94.03
2022-12-03T01:28:09.458Z,94.12
2022-12-03T01:30:56.931Z,94.29
2022-12-03T01:33:24.650Z,94.20
2022-12-03T01:35:52.147Z,94.32
2022-12-03T01:38:19.748Z,94.11
2022-12-03T01:40:47.343Z,94.35
2022-12-03T01:43:14.936Z,94.30
2022-12-03T01:45:42.410Z,94.22
2022-12-03T01:48:16.679Z,93.87
2022-12-03T01:50:44.651Z,93.72
2022-12-03T01:53:19.001Z,93.79
2022-12-03T01:55:48.804Z,94.19
2022-12-03T01:58:21.306Z,94.25
2022-12-03T02:00:48.888Z,94.16
2022-12-03T02:03:23.237Z,94.29
2022-12-03T02:05:51.313Z,94.64
2022-12-03T02:08:58.782Z,94.15
2022-12-03T02:11:40.801Z,94.41
2022-12-03T02:14:16.278Z,94.58
2022-12-03T02:16:44.751Z,94.36
2022-12-03T02:19:24.392Z,94.70
2022-12-03T02:22:31.791Z,94.30
2022-12-03T02:24:59.389Z,94.34
2022-12-03T02:27:28.647Z,94.07
2022-12-03T02:29:56.833Z,94.09
2022-12-03T02:32:24.339Z,94.19
2022-12-03T02:34:52.354Z,94.35
2022-12-03T02:37:30.781Z,94.72
2022-12-03T02:40:09.286Z,94.74
2022-12-03T02:42:37.154Z,94.55
2022-12-03T02:45:16.383Z,93.97
2022-12-03T02:47:54.048Z,94.37
2022-12-03T02:50:31.944Z,94.50
2022-12-03T02:53:04.716Z,94.81
2022-12-03T02:55:37.000Z,94.19
2022-12-03T02:58:06.265Z,94.53
2022-12-03T03:00:35.750Z,94.52
2022-12-03T03:03:07.767Z,94.98
2022-12-03T03:05:39.806Z,94.48
2022-12-03T03:08:09.572Z,94.71
2022-12-03T03:10:40.648Z,94.15
2022-12-03T03:13:14.642Z,94.49
2022-12-03T03:15:43.014Z,94.93
2022-12-03T03:18:13.407Z,95.16
2022-12-03T03:20:42.183Z,94.95
2022-12-03T03:23:12.608Z,94.73
2022-12-03T03:25:48.700Z,95.21
2022-12-03T03:28:17.085Z,95.41
2022-12-03T03:30:45.095Z,95.01
2022-12-03T03:33:13.602Z,95.10
2022-12-03T03:35:42.480Z,95.08
2022-12-03T03:38:10.876Z,94.89
2022-12-03T03:40:39.155Z,94.54
2022-12-03T03:43:07.265Z,94.86
2022-12-03T03:45:34.769Z,94.70
2022-12-03T03:48:02.557Z,95.18
2022-12-03T03:50:32.096Z,95.04
2022-12-03T03:53:02.918Z,94.64
2022-12-03T03:55:31.895Z,95.18
2022-12-03T03:57:59.817Z,95.02
2022-12-03T04:00:27.490Z,95.11
2022-12-03T04:02:54.936Z,95.45
2022-12-03T04:05:24.853Z,95.22
2022-12-03T04:07:52.376Z,95.32
2022-12-03T04:10:38.879Z,95.33
2022-12-03T04:13:07.567Z,95.32
2022-12-03T04:15:35.056Z,95.56
2022-12-03T04:18:21.025Z,95.31
2022-12-03T04:20:48.512Z,95.16
2022-12-03T04:23:16.275Z,95.72
2022-12-03T04:26:02.338Z,95.62
2022-12-03T04:28:48.565Z,95.78
2022-12-03T04:31:34.641Z,95.53
2022-12-03T04:34:20.994Z,95.70
2022-12-03T04:36:48.592Z,95.87
2022-12-03T04:39:16.078Z,96.15
2022-12-03T04:41:43.471Z,96.49
2022-12-03T04:44:29.789Z,96.53
2022-12-03T04:46:57.351Z,96.14
2022-12-03T04:49:24.825Z,96.13
2022-12-03T04:51:52.523Z,96.30
2022-12-03T04:54:20.048Z,96.44
2022-12-03T04:56:47.468Z,96.52
2022-12-03T04:59:16.548Z,96.60
2022-12-03T05:01:45.184Z,96.37
2022-12-03T05:04:14.492Z,96.95
2022-12-03T05:06:42.773Z,96.93
2022-12-03T05:09:10.754Z,97.17
2022-12-03T05:11:39.501Z,97.15
2022-12-03T05:14:07.238Z,97.21
2022-12-03T05:16:34.747Z,97.21
2022-12-03T05:19:04.593Z,97.14
2022-12-03T05:21:32.169Z,97.41
2022-12-03T05:23:59.700Z,97.24
2022-12-03T05:26:27.152Z,97.52
2022-12-03T05:28:54.579Z,97.51
2022-12-03T05:31:34.168Z,97.59
2022-12-03T05:34:04.371Z,97.92
2022-12-03T05:36:47.009Z,97.84
2022-12-03T05:39:48.494Z,97.70
2022-12-03T05:42:55.541Z,98.08
2022-12-03T05:45:47.914Z,98.05
2022-12-03T05:48:18.410Z,98.21
2022-12-03T05:50:51.310Z,98.16
2022-12-03T05:53:26.115Z,98.09
2022-12-03T05:56:05.381Z,98.30
2022-12-03T05:58:59.934Z,98.10
2022-12-03T06:01:51.894Z,98.24
2022-12-03T06:04:38.945Z,97.96
2022-12-03T06:07:17.387Z,98.01
2022-12-03T06:09:44.949Z,97.53
2022-12-03T06:12:12.729Z,97.57
2022-12-03T06:14:52.271Z,97.68
2022-12-03T06:23:44.882Z,97.83
2022-12-03T06:26:15.092Z,97.92
2022-12-03T06:28:46.403Z,97.65
2022-12-03T06:31:14.099Z,97.99
2022-12-03T06:33:41.581Z,97.35
2022-12-03T06:36:09.330Z,97.52
2022-12-03T06:38:36.771Z,97.15
2022-12-03T06:41:04.272Z,97.70
2022-12-03T06:43:31.621Z,97.14
2022-12-03T06:45:59.173Z,97.38
2022-12-03T06:48:26.609Z,97.40
2022-12-03T06:50:54.121Z,97.49
2022-12-03T06:53:21.631Z,97.65
2022-12-03T06:55:49.128Z,97.56
2022-12-03T06:58:16.579Z,96.90
2022-12-03T07:00:44.928Z,97.01
2022-12-03T07:03:18.128Z,97.13
2022-12-03T07:06:18.146Z,97.27
2022-12-03T07:08:45.552Z,96.95
2022-12-03T07:11:31.254Z,97.07
2022-12-03T07:14:05.464Z,97.36
2022-12-03T07:16:35.952Z,97.03
2022-12-03T07:19:12.529Z,97.01
2022-12-03T07:21:44.058Z,96.83
2022-12-03T07:24:21.222Z,96.99
2022-12-03T07:26:51.162Z,96.91
2022-12-03T07:29:23.920Z,96.63
2022-12-03T07:31:58.962Z,96.82
2022-12-03T07:34:27.265Z,97.35
2022-12-03T07:36:59.420Z,96.73
2022-12-03T07:39:29.781Z,96.48
2022-12-03T07:41:57.427Z,96.81
2022-12-03T07:44:24.932Z,97.04
2022-12-03T07:46:52.438Z,97.00
2022-12-03T07:49:19.950Z,97.04
2022-12-03T07:51:53.925Z,96.57
2022-12-03T07:54:21.919Z,96.29
2022-12-03T07:56:49.887Z,96.49
2022-12-03T07:59:18.252Z,96.52
2022-12-03T08:01:46.140Z,96.42
2022-12-03T08:04:14.767Z,96.52
2022-12-03T08:06:42.228Z,96.43
2022-12-03T08:09:14.555Z,95.98
2022-12-03T08:11:47.785Z,95.75
2022-12-03T08:14:19.498Z,95.65
2022-12-03T08:16:47.836Z,95.51
2022-12-03T08:19:17.717Z,95.87
2022-12-03T08:21:45.564Z,96.02
2022-12-03T08:24:19.878Z,95.51
2022-12-03T08:26:49.572Z,95.44
2022-12-03T08:29:19.986Z,95.41
2022-12-03T08:31:55.308Z,95.50
2022-12-03T08:34:27.808Z,95.01
2022-12-03T08:37:05.778Z,94.97
2022-12-03T08:39:45.494Z,95.49
2022-12-03T08:42:44.693Z,95.45
2022-12-03T08:45:32.188Z,95.61
2022-12-03T08:48:22.428Z,95.92
2022-12-03T08:50:50.447Z,95.79
2022-12-03T08:53:47.747Z,95.69
2022-12-03T08:56:27.164Z,95.82
2022-12-03T08:59:15.899Z,95.38
2022-12-03T09:01:46.226Z,95.49
2022-12-03T09:04:53.242Z,95.28
2022-12-03T09:07:20.794Z,95.01
2022-12-03T09:09:48.362Z,94.67
2022-12-03T09:12:15.854Z,94.74
2022-12-03T09:14:43.362Z,95.06
2022-12-03T09:17:10.947Z,95.23
2022-12-03T09:19:46.187Z,95.01
2022-12-03T09:22:15.199Z,94.73
2022-12-03T09:24:42.738Z,95.39
2022-12-03T09:27:10.129Z,95.10
2022-12-03T09:29:37.765Z,94.99
2022-12-03T09:32:05.337Z,94.92
2022-12-03T09:34:34.733Z,95.40
2022-12-03T09:37:02.173Z,95.30
2022-12-03T09:39:31.142Z,95.65
2022-12-03T09:41:58.599Z,95.23
2022-12-03T09:44:29.819Z,95.05
2022-12-03T09:47:00.750Z,95.37
2022-12-03T09:49:31.762Z,95.51
2022-12-03T09:52:02.882Z,95.09
2022-12-03T09:54:32.440Z,95.00
2022-12-03T09:57:03.544Z,95.33
2022-12-03T09:59:34.649Z,94.80
2022-12-03T10:02:03.669Z,94.39
2022-12-03T10:04:31.697Z,93.79
2022-12-03T10:06:59.297Z,93.11
2022-12-03T10:09:29.279Z,92.96
2022-12-03T10:11:59.381Z,93.01
2022-12-03T10:14:28.125Z,93.15
2022-12-03T10:16:56.529Z,93.22
2022-12-03T10:19:31.676Z,92.04
2022-12-03T10:22:01.673Z,92.20
2022-12-03T10:24:36.200Z,91.08
2022-12-03T10:27:22.162Z,90.98
2022-12-03T10:29:59.174Z,91.04
2022-12-03T10:32:41.699Z,90.62
2022-12-03T10:35:13.226Z,91.11
2022-12-03T10:38:07.891Z,89.87
2022-12-03T10:40:39.145Z,89.83
2022-12-03T10:43:18.796Z,89.78
2022-12-03T10:45:51.330Z,89.69
2022-12-03T10:48:27.322Z,89.54
2022-12-03T10:51:21.129Z,89.78
2022-12-03T10:53:50.770Z,89.65
2022-12-03T10:56:26.328Z,89.41
2022-12-03T10:58:54.455Z,89.09
2022-12-03T11:01:25.909Z,89.60
2022-12-03T11:04:04.995Z,89.54
2022-12-03T11:06:33.095Z,90.08
2022-12-03T11:09:08.305Z,90.45
2022-12-03T11:11:36.863Z,90.51
2022-12-03T11:14:05.276Z,90.76
2022-12-03T11:16:39.143Z,90.73
2022-12-03T11:19:12.582Z,89.73
2022-12-03T11:22:05.106Z,90.01
2022-12-03T11:24:38.896Z,89.55
2022-12-03T11:27:16.903Z,90.20
2022-12-03T11:29:59.202Z,90.12
2022-12-03T11:33:00.498Z,89.32
2022-12-03T11:35:37.803Z,89.78
2022-12-03T11:38:52.430Z,89.54
2022-12-03T11:41:32.736Z,90.25
2022-12-03T11:44:31.122Z,90.10
2022-12-03T11:47:23.866Z,89.54
2022-12-03T11:50:01.223Z,89.68
2022-12-03T11:52:32.519Z,89.85
2022-12-03T11:55:15.912Z,89.73
2022-12-03T11:57:43.755Z,89.63
2022-12-03T12:00:24.037Z,89.65
2022-12-03T12:02:57.534Z,90.66
2022-12-03T12:05:35.571Z,90.28
2022-12-03T12:08:03.976Z,90.51
2022-12-03T12:10:49.194Z,90.20
2022-12-03T12:13:32.035Z,90.17
2022-12-03T12:16:06.820Z,90.60
2022-12-03T12:18:55.058Z,90.19
2022-12-03T12:21:48.086Z,89.62
2022-12-03T12:24:40.664Z,89.30
2022-12-03T12:27:11.443Z,89.86
2022-12-03T12:29:41.981Z,89.94
2022-12-03T12:32:09.480Z,90.30
2022-12-03T12:34:39.014Z,90.11
2022-12-03T12:37:12.988Z,90.04
2022-12-03T12:39:40.966Z,89.79
2022-12-03T12:42:33.072Z,89.89
2022-12-03T12:45:16.835Z,89.77
2022-12-03T12:48:19.765Z,89.68
2022-12-03T12:51:09.804Z,90.55
2022-12-03T12:53:40.790Z,90.59
2022-12-03T12:56:28.058Z,90.41
2022-12-03T12:59:01.096Z,91.06
2022-12-03T13:01:30.978Z,90.81
2022-12-03T13:03:59.668Z,90.75
2022-12-03T13:06:31.385Z,90.99
2022-12-03T13:09:01.002Z,91.20
2022-12-03T13:11:45.902Z,91.47
2022-12-03T13:14:24.194Z,91.18
2022-12-03T13:16:55.205Z,91.29
2022-12-03T13:19:30.438Z,90.84
2022-12-03T13:22:10.182Z,90.96
2022-12-03T13:24:50.717Z,91.24
2022-12-03T13:27:18.086Z,90.79
2022-12-03T13:29:50.123Z,90.47
2022-12-03T13:32:27.709Z,90.59
2022-12-03T13:35:30.125Z,90.96
2022-12-03T13:38:01.554Z,90.57
2022-12-03T13:40:32.842Z,90.56
2022-12-03T13:43:05.110Z,91.16
2022-12-03T13:45:38.631Z,91.37
2022-12-03T13:48:24.092Z,90.99
2022-12-03T13:50:53.315Z,90.80
2022-12-03T13:53:26.633Z,90.71
2022-12-03T13:56:31.866Z,90.91
2022-12-03T13:59:01.132Z,90.84
2022-12-03T14:01:29.285Z,90.62
2022-12-03T14:03:57.128Z,91.12
2022-12-03T14:06:24.641Z,91.30
2022-12-03T14:08:52.106Z,91.25
2022-12-03T14:11:38.180Z,90.92
2022-12-03T14:14:05.858Z,90.63
2022-12-03T14:16:33.427Z,90.68
2022-12-03T14:19:01.003Z,90.88
2022-12-03T14:21:28.475Z,90.86
2022-12-03T14:23:55.898Z,90.98
2022-12-03T14:26:23.331Z,90.97
2022-12-03T14:28:50.711Z,91.35
2022-12-03T14:31:18.231Z,91.50
2022-12-03T14:33:45.750Z,91.36
2022-12-03T14:36:13.198Z,91.26
2022-12-03T14:38:40.612Z,91.23
2022-12-03T14:41:28.159Z,91.01
2022-12-03T14:43:55.585Z,91.13
2022-12-03T14:46:23.234Z,91.45
2022-12-03T14:48:50.629Z,91.38
2022-12-03T14:51:18.118Z,91.81
2022-12-03T14:53:45.532Z,91.37
2022-12-03T14:56:12.931Z,91.15
2022-12-03T14:58:40.414Z,91.13
2022-12-03T15:01:07.971Z,90.95
2022-12-03T15:03:35.422Z,91.18
2022-12-03T15:06:02.914Z,90.66
2022-12-03T15:08:30.439Z,90.88
2022-12-03T15:11:00.585Z,91.75
2022-12-03T15:13:30.640Z,91.54
2022-12-03T15:16:31.052Z,91.86
2022-12-03T15:19:11.693Z,91.85
2022-12-03T15:21:47.731Z,92.00
2022-12-03T15:24:17.391Z,92.24
2022-12-03T15:26:52.264Z,92.13
2022-12-03T15:29:24.293Z,92.16
2022-12-03T15:31:58.297Z,92.60
2022-12-03T15:34:25.858Z,92.57
2022-12-03T15:36:53.258Z,92.75
2022-12-03T15:39:20.699Z,92.80
2022-12-03T15:41:48.785Z,93.16
2022-12-03T15:44:17.743Z,93.16
2022-12-03T15:46:45.319Z,93.43
2022-12-03T15:49:15.279Z,93.23
2022-12-03T15:51:42.710Z,93.80
2022-12-03T15:54:12.194Z,94.06
2022-12-03T15:56:39.791Z,94.32
2022-12-03T15:59:07.294Z,94.79
2022-12-03T16:01:34.762Z,95.16
2022-12-03T16:04:04.816Z,95.25
2022-12-03T16:06:32.220Z,94.85
2022-12-03T16:08:59.667Z,95.29
2022-12-03T16:11:29.291Z,95.13
2022-12-03T16:13:56.767Z,95.07
2022-12-03T16:16:24.302Z,95.40
2022-12-03T16:18:51.731Z,95.58
2022-12-03T16:21:23.477Z,95.42
2022-12-03T16:23:56.276Z,95.82
2022-12-03T16:26:26.210Z,96.14
2022-12-03T16:28:54.872Z,96.21
2022-12-03T16:31:24.834Z,95.69
2022-12-03T16:33:52.402Z,95.87
2022-12-03T16:36:19.833Z,95.93
2022-12-03T16:38:47.301Z,96.42
2022-12-03T16:41:14.797Z,96.32
2022-12-03T16:43:45.404Z,95.82
2022-12-03T16:46:19.135Z,96.12
2022-12-03T16:48:48.256Z,96.26
2022-12-03T16:51:19.159Z,96.16
2022-12-03T16:53:48.899Z,96.26
2022-12-03T16:56:26.415Z,95.86
2022-12-03T16:59:00.296Z,96.49
2022-12-03T17:01:27.790Z,96.21
2022-12-03T17:03:55.373Z,96.22
2022-12-03T17:06:25.300Z,96.33
2022-12-03T17:08:52.765Z,95.97
2022-12-03T17:11:20.336Z,96.28
2022-12-03T17:13:47.778Z,95.91
2022-12-03T17:16:15.282Z,96.65
2022-12-03T17:18:42.995Z,96.10
2022-12-03T17:21:10.524Z,96.44
2022-12-03T17:23:37.983Z,96.68
2022-12-03T17:26:05.504Z,96.25
2022-12-03T17:28:32.929Z,96.56
2022-12-03T17:31:00.394Z,96.29
2022-12-03T17:33:27.858Z,96.50
2022-12-03T17:35:55.272Z,96.62
2022-12-03T17:38:22.784Z,96.45
2022-12-03T17:40:50.237Z,96.61
2022-12-03T17:43:17.650Z,96.00
2022-12-03T17:45:45.067Z,96.17
2022-12-03T17:48:12.447Z,96.41
2022-12-03T17:50:40.827Z,96.70
2022-12-03T17:53:10.543Z,96.35
2022-12-03T17:55:44.363Z,96.63
2022-12-03T17:58:13.795Z,96.18
2022-12-03T18:00:42.069Z,96.60
2022-12-03T18:03:09.628Z,96.37
2022-12-03T18:05:39.843Z,96.47
2022-12-03T18:08:07.285Z,96.57
2022-12-03T18:10:34.819Z,96.85
2022-12-03T18:13:02.558Z,96.68
2022-12-03T18:15:31.920Z,97.07
2022-12-03T18:17:59.291Z,97.04
2022-12-03T18:20:26.843Z,96.69
2022-12-03T18:22:54.355Z,96.85
2022-12-03T18:25:21.832Z,96.69
2022-12-03T18:27:49.250Z,96.65
2022-12-03T18:30:16.855Z,96.85
2022-12-03T18:32:44.404Z,96.70
2022-12-03T18:35:11.871Z,96.59
2022-12-03T18:37:39.896Z,96.89
2022-12-03T18:40:16.245Z,96.90
2022-12-03T18:42:43.747Z,97.02
2022-12-03T18:45:13.185Z,97.43
2022-12-03T18:47:40.965Z,96.49
2022-12-03T18:50:10.794Z,97.27
2022-12-03T18:52:38.955Z,97.22
2022-12-03T18:55:07.442Z,97.47
2022-12-03T18:57:34.995Z,97.05
2022-12-03T19:00:13.275Z,97.30
2022-12-03T19:05:29.780Z,97.29
2022-12-03T19:07:57.212Z,97.53
2022-12-03T19:10:25.634Z,97.55
2022-12-03T19:12:54.656Z,97.37
2022-12-03T19:15:22.837Z,97.13
2022-12-03T19:17:51.403Z,96.67
2022-12-03T19:20:18.915Z,97.11
2022-12-03T19:22:46.291Z,97.14
2022-12-03T19:25:13.773Z,97.15
2022-12-03T19:27:44.822Z,97.07
2022-12-03T19:30:14.711Z,97.48
2022-12-03T19:32:45.772Z,97.05
2022-12-03T19:35:13.340Z,97.20
2022-12-03T19:37:40.802Z,97.37
2022-12-03T19:40:10.332Z,96.98
2022-12-03T19:42:38.223Z,96.87
2022-12-03T19:45:06.954Z,97.18
2022-12-03T19:47:36.335Z,97.37
2022-12-03T19:50:05.909Z,97.11
2022-12-03T19:52:36.306Z,97.00
2022-12-03T19:55:04.287Z,97.34
2022-12-03T19:57:31.861Z,97.71
2022-12-03T19:59:59.785Z,97.20
2022-12-03T20:02:27.312Z,97.49
2022-12-03T20:04:54.933Z,97.65
2022-12-03T20:07:22.421Z,97.05
2022-12-03T20:09:51.413Z,97.66
2022-12-03T20:12:18.911Z,97.29
2022-12-03T20:14:46.497Z,97.13
2022-12-03T20:17:13.968Z,97.13
2022-12-03T20:19:41.360Z,97.18
2022-12-03T20:22:09.087Z,97.04
2022-12-03T20:24:36.453Z,97.35
2022-12-03T20:27:03.878Z,97.05
2022-12-03T20:29:31.291Z,97.76
2022-12-03T20:31:59.820Z,97.30
2022-12-03T20:34:27.356Z,97.52
2022-12-03T20:36:54.754Z,97.59
2022-12-03T20:39:22.217Z,97.61
2022-12-03T20:41:52.526Z,97.71
2022-12-03T20:44:20.000Z,97.47
2022-12-03T20:46:47.439Z,97.79
2022-12-03T20:49:15.340Z,97.91
2022-12-03T20:51:42.983Z,97.41
2022-12-03T20:54:10.490Z,97.68
2022-12-03T20:56:43.621Z,97.80
2022-12-03T20:59:14.510Z,97.92
2022-12-03T21:01:44.046Z,97.88
2022-12-03T21:04:18.050Z,97.60
2022-12-03T21:06:45.956Z,97.63
2022-12-03T21:09:13.886Z,97.33
2022-12-03T21:11:42.410Z,98.03
2022-12-03T21:14:11.170Z,98.14
2022-12-03T21:19:30.467Z,97.71
2022-12-03T21:21:58.043Z,97.79
2022-12-03T21:24:25.635Z,98.25
2022-12-03T21:26:53.222Z,98.28
2022-12-03T21:29:20.646Z,98.09
2022-12-03T21:31:48.159Z,98.04
2022-12-03T21:34:15.891Z,97.88
2022-12-03T21:36:43.476Z,97.67
2022-12-03T21:39:11.225Z,97.95
2022-12-03T21:41:41.571Z,98.03
2022-12-03T21:44:29.072Z,98.38
2022-12-03T21:47:11.575Z,98.37
2022-12-03T21:49:41.980Z,98.14
2022-12-03T21:52:10.182Z,97.84
2022-12-03T21:54:37.705Z,98.34
2022-12-03T21:57:05.231Z,98.08
2022-12-03T21:59:32.830Z,97.83
2022-12-03T22:02:00.700Z,98.14
2022-12-03T22:04:28.279Z,97.89
2022-12-03T22:06:55.718Z,98.35
2022-12-03T22:09:26.477Z,98.39
2022-12-03T22:11:59.272Z,98.48
2022-12-03T22:14:28.512Z,98.33
2022-12-03T22:16:56.024Z,98.21
2022-12-03T22:19:25.025Z,98.25
2022-12-03T22:21:52.569Z,98.23
2022-12-03T22:24:20.154Z,97.58
2022-12-03T22:26:47.964Z,98.16
2022-12-03T22:29:15.613Z,97.93
2022-12-03T22:31:43.166Z,98.00
2022-12-03T22:34:10.592Z,98.23
2022-12-03T22:36:38.194Z,98.27
2022-12-03T22:39:05.683Z,98.39
2022-12-03T22:41:33.084Z,98.42
2022-12-03T22:44:00.509Z,98.35
2022-12-03T22:46:28.008Z,98.24
2022-12-03T22:48:55.560Z,97.87
2022-12-03T22:51:25.734Z,98.23
2022-12-03T22:53:59.221Z,98.14
2022-12-03T22:56:29.697Z,98.25
2022-12-03T22:58:57.650Z,98.47
2022-12-03T23:01:32.472Z,98.13
2022-12-03T23:04:01.247Z,98.35
2022-12-03T23:06:30.340Z,98.39
2022-12-03T23:08:59.105Z,98.91
2022-12-03T23:11:27.535Z,99.01
2022-12-03T23:13:55.198Z,98.30
2022-12-03T23:16:27.392Z,98.16
2022-12-03T23:18:55.199Z,98.44
2022-12-03T23:21:30.092Z,98.50
2022-12-03T23:24:03.646Z,98.35
2022-12-03T23:26:36.086Z,98.75
2022-12-03T23:29:05.655Z,98.66
2022-12-03T23:31:34.592Z,99.02
2022-12-03T23:34:02.948Z,98.56
2022-12-03T23:36:33.095Z,98.44
2022-12-03T23:39:00.806Z,98.60
2022-12-03T23:41:28.585Z,98.74
2022-12-03T23:43:56.888Z,98.69
2022-12-03T23:46:27.328Z,98.98
2022-12-03T23:48:58.471Z,98.83
2022-12-03T23:51:26.669Z,98.74
2022-12-03T23:53:55.557Z,98.95
2022-12-03T23:56:30.954Z,98.81
2022-12-03T23:59:00.952Z,99.13
